BAW92 CYYZ-EGLL
Flight info
| Callsign | BAW92 |
|---|---|
| Flight time | N/A |
| Altitude | 37000 |
| Route | BOMET8 IPTOS Q921 SOKYE/N0386F170 T781 IMORI T660 ANATI/N0487F370 DCT RIKAL/N0480F390 DCT H5252/M084F390 DCT 5350N DCT H5348 DCT 5445N DCT H5443 DCT 5540N DCT H5538 DCT 5635N DCT H5632 DCT H5631 DCT H5628 DCT H5625 DCT H5621 DCT H5618 DCT BILTO/N0477F390 DCT RUXIN DCT MIMKU/N0433F250 N562 MAC/N0477F400 DCT QQ1/N0483F410 DCT VYL DCT WD2 DCT FITBO FITB2H |
| Aircraft | B772/H-SDE2E3FGHIJ5LORVWXY/LB1D1 |
Departure
| Time | 2026-05-04 07:43 |
|---|---|
| Airport | Toronto Pearson International Airport (CYYZ) |
Arrival
| Time | N/A |
|---|---|
| Airport | London Heathrow Airport (EGLL) |
| Time | Latitude | Longitude | Altitude | Speed | Heading |
|---|---|---|---|---|---|
| 2026-05-04 06:58 | 43.68194 | -79.61917 | 557 ft | 0 kts | 303° |
| 2026-05-04 07:26 | 43.68172 | -79.61873 | 557 ft | 2 kts | 303° |
| 2026-05-04 07:27 | 43.68164 | -79.61856 | 557 ft | 2 kts | 303° |
| 2026-05-04 07:27 | 43.68159 | -79.61845 | 557 ft | 2 kts | 302° |
| 2026-05-04 07:27 | 43.68156 | -79.61826 | 557 ft | 2 kts | 250° |
| 2026-05-04 07:27 | 43.68160 | -79.61815 | 557 ft | 0 kts | 224° |
| 2026-05-04 07:28 | 43.68163 | -79.61811 | 556 ft | 0 kts | 225° |
| 2026-05-04 07:29 | 43.68163 | -79.61810 | 556 ft | 0 kts | 225° |
| 2026-05-04 07:33 | 43.68105 | -79.61893 | 556 ft | 0 kts | 226° |
| 2026-05-04 07:34 | 43.68093 | -79.61910 | 556 ft | 5 kts | 226° |
| 2026-05-04 07:34 | 43.68044 | -79.61971 | 556 ft | 14 kts | 207° |
| 2026-05-04 07:34 | 43.67950 | -79.62052 | 557 ft | 7 kts | 218° |
| 2026-05-04 07:35 | 43.67897 | -79.62057 | 556 ft | 8 kts | 161° |
| 2026-05-04 07:35 | 43.67836 | -79.61993 | 556 ft | 14 kts | 136° |
| 2026-05-04 07:35 | 43.67766 | -79.61901 | 556 ft | 17 kts | 136° |
| 2026-05-04 07:35 | 43.67663 | -79.61766 | 556 ft | 23 kts | 136° |
| 2026-05-04 07:36 | 43.67528 | -79.61591 | 556 ft | 25 kts | 136° |
| 2026-05-04 07:36 | 43.67410 | -79.61434 | 552 ft | 24 kts | 137° |
| 2026-05-04 07:38 | 43.67546 | -79.60767 | 545 ft | 0 kts | 24° |
| 2026-05-04 07:38 | 43.67575 | -79.60719 | 546 ft | 13 kts | 63° |
| 2026-05-04 07:39 | 43.67642 | -79.60583 | 546 ft | 23 kts | 46° |
| 2026-05-04 07:39 | 43.67779 | -79.60384 | 547 ft | 33 kts | 46° |
| 2026-05-04 07:39 | 43.67942 | -79.60147 | 551 ft | 31 kts | 46° |
| 2026-05-04 07:39 | 43.67997 | -79.60052 | 553 ft | 10 kts | 51° |
| 2026-05-04 07:40 | 43.68032 | -79.59950 | 552 ft | 13 kts | 86° |
| 2026-05-04 07:40 | 43.68023 | -79.59829 | 552 ft | 8 kts | 112° |
| 2026-05-04 07:40 | 43.68000 | -79.59787 | 551 ft | 5 kts | 133° |
| 2026-05-04 07:40 | 43.67964 | -79.59738 | 550 ft | 8 kts | 138° |
| 2026-05-04 07:41 | 43.67901 | -79.59730 | 550 ft | 11 kts | 214° |
| 2026-05-04 07:41 | 43.67857 | -79.59796 | 550 ft | 3 kts | 227° |
| 2026-05-04 07:41 | 43.67857 | -79.59797 | 550 ft | 0 kts | 227° |
| 2026-05-04 07:41 | 43.67855 | -79.59801 | 550 ft | 1 kts | 227° |
| 2026-05-04 07:42 | 43.67841 | -79.59821 | 550 ft | 8 kts | 227° |
| 2026-05-04 07:42 | 43.67663 | -79.60080 | 548 ft | 70 kts | 226° |
| 2026-05-04 07:42 | 43.67175 | -79.60789 | 534 ft | 131 kts | 227° |
| 2026-05-04 07:42 | 43.66432 | -79.61855 | 652 ft | 167 kts | 227° |
| 2026-05-04 07:43 | 43.65667 | -79.62989 | 1331 ft | 162 kts | 230° |
| 2026-05-04 07:43 | 43.64884 | -79.64152 | 1922 ft | 172 kts | 227° |
| 2026-05-04 07:43 | 43.63980 | -79.65341 | 2412 ft | 190 kts | 224° |
| 2026-05-04 07:43 | 43.62726 | -79.66146 | 2931 ft | 215 kts | 195° |
| 2026-05-04 07:44 | 43.61193 | -79.65812 | 3604 ft | 241 kts | 161° |
| 2026-05-04 07:44 | 43.59923 | -79.64179 | 4244 ft | 262 kts | 131° |
| 2026-05-04 07:44 | 43.58883 | -79.62054 | 4935 ft | 276 kts | 128° |
| 2026-05-04 07:44 | 43.57816 | -79.59781 | 5594 ft | 290 kts | 127° |
| 2026-05-04 07:45 | 43.56734 | -79.57415 | 6431 ft | 298 kts | 120° |
| 2026-05-04 07:45 | 43.56144 | -79.54675 | 7247 ft | 305 kts | 93° |
| 2026-05-04 07:45 | 43.56237 | -79.51771 | 8112 ft | 308 kts | 82° |
| 2026-05-04 07:45 | 43.56505 | -79.48853 | 8912 ft | 310 kts | 81° |
| 2026-05-04 07:46 | 43.56786 | -79.45906 | 9695 ft | 314 kts | 81° |
| 2026-05-04 07:46 | 43.57112 | -79.42941 | 10379 ft | 318 kts | 75° |
| 2026-05-04 07:46 | 43.57851 | -79.40001 | 10689 ft | 334 kts | 61° |
| 2026-05-04 07:46 | 43.59119 | -79.37254 | 10949 ft | 348 kts | 46° |
| 2026-05-04 07:47 | 43.60909 | -79.34934 | 11201 ft | 362 kts | 36° |
| 2026-05-04 07:47 | 43.62836 | -79.32577 | 11543 ft | 380 kts | 39° |
| 2026-05-04 07:47 | 43.64756 | -79.29985 | 11935 ft | 393 kts | 42° |
| 2026-05-04 07:49 | 43.75855 | -79.07165 | 16343 ft | 431 kts | 60° |
| 2026-05-04 07:49 | 43.77197 | -79.03455 | 16959 ft | 434 kts | 60° |
| 2026-05-04 07:49 | 43.78547 | -78.99718 | 17571 ft | 437 kts | 59° |
| 2026-05-04 07:50 | 43.79907 | -78.95952 | 18148 ft | 441 kts | 59° |
| 2026-05-04 07:50 | 43.81279 | -78.92144 | 18709 ft | 445 kts | 59° |
| 2026-05-04 07:50 | 43.82661 | -78.88307 | 19299 ft | 448 kts | 59° |
| 2026-05-04 07:50 | 43.84050 | -78.84443 | 19866 ft | 452 kts | 59° |
| 2026-05-04 07:51 | 43.85449 | -78.80550 | 20442 ft | 454 kts | 58° |
| 2026-05-04 07:51 | 43.86924 | -78.76703 | 20998 ft | 455 kts | 57° |
| 2026-05-04 07:51 | 43.88433 | -78.72844 | 21550 ft | 458 kts | 57° |
| 2026-05-04 07:51 | 43.89947 | -78.68962 | 22098 ft | 461 kts | 57° |
| 2026-05-04 07:52 | 43.91468 | -78.65050 | 22605 ft | 464 kts | 57° |
| 2026-05-04 07:52 | 43.92998 | -78.61105 | 23086 ft | 468 kts | 57° |
| 2026-05-04 07:52 | 43.94533 | -78.57134 | 23607 ft | 470 kts | 57° |
| 2026-05-04 07:52 | 43.96076 | -78.53138 | 24123 ft | 473 kts | 57° |
| 2026-05-04 07:53 | 43.97620 | -78.49128 | 24630 ft | 475 kts | 57° |
| 2026-05-04 07:54 | 44.08716 | -78.20148 | 27470 ft | 496 kts | 58° |
| 2026-05-04 07:55 | 44.10335 | -78.15892 | 27862 ft | 498 kts | 58° |
| 2026-05-04 07:55 | 44.11957 | -78.11624 | 28247 ft | 499 kts | 58° |
| 2026-05-04 07:55 | 44.13582 | -78.07341 | 28583 ft | 501 kts | 58° |
| 2026-05-04 07:55 | 44.15217 | -78.03025 | 28895 ft | 503 kts | 58° |
| 2026-05-04 07:56 | 44.16823 | -77.98674 | 29209 ft | 506 kts | 62° |
| 2026-05-04 07:56 | 44.18155 | -77.94119 | 29511 ft | 510 kts | 65° |
| 2026-05-04 07:56 | 44.19410 | -77.89505 | 29793 ft | 512 kts | 65° |
| 2026-05-04 07:56 | 44.20660 | -77.84875 | 30136 ft | 513 kts | 65° |
| 2026-05-04 07:57 | 44.21911 | -77.80238 | 30496 ft | 512 kts | 65° |
| 2026-05-04 07:57 | 44.23156 | -77.75614 | 30894 ft | 511 kts | 65° |
| 2026-05-04 07:57 | 44.24396 | -77.71002 | 31302 ft | 509 kts | 65° |
| 2026-05-04 07:57 | 44.25632 | -77.66399 | 31589 ft | 508 kts | 65° |
| 2026-05-04 07:58 | 44.26867 | -77.61797 | 31831 ft | 509 kts | 65° |
| 2026-05-04 07:58 | 44.28100 | -77.57189 | 32040 ft | 510 kts | 65° |
| 2026-05-04 07:58 | 44.29338 | -77.52561 | 32273 ft | 510 kts | 65° |
| 2026-05-04 07:58 | 44.30577 | -77.47953 | 32541 ft | 509 kts | 65° |
| 2026-05-04 07:59 | 44.31815 | -77.43343 | 32780 ft | 509 kts | 65° |
| 2026-05-04 07:59 | 44.33051 | -77.38729 | 32964 ft | 509 kts | 65° |
| 2026-05-04 07:59 | 44.34288 | -77.34105 | 33116 ft | 510 kts | 66° |
| 2026-05-04 07:59 | 44.35533 | -77.29443 | 33218 ft | 511 kts | 66° |
| 2026-05-04 08:00 | 44.37835 | -77.20816 | 33437 ft | 513 kts | 65° |
| 2026-05-04 08:00 | 44.39361 | -77.16352 | 33583 ft | 508 kts | 56° |
| 2026-05-04 08:02 | 44.54384 | -76.89397 | 33741 ft | 522 kts | 47° |
| 2026-05-04 08:02 | 44.58913 | -76.81436 | 33758 ft | 525 kts | 47° |
| 2026-05-04 08:03 | 44.63449 | -76.73437 | 33815 ft | 525 kts | 47° |
| 2026-05-04 08:03 | 44.67984 | -76.65416 | 33886 ft | 526 kts | 47° |
| 2026-05-04 08:04 | 44.72522 | -76.57368 | 33937 ft | 527 kts | 47° |
| 2026-05-04 08:04 | 44.77049 | -76.49317 | 33988 ft | 527 kts | 47° |
| 2026-05-04 08:05 | 44.81582 | -76.41232 | 34009 ft | 527 kts | 47° |
| 2026-05-04 08:05 | 44.86118 | -76.33120 | 34032 ft | 528 kts | 48° |
| 2026-05-04 08:06 | 44.90582 | -76.24897 | 34026 ft | 531 kts | 53° |
| 2026-05-04 08:06 | 44.93769 | -76.15415 | 34167 ft | 535 kts | 68° |
| 2026-05-04 08:08 | 45.01952 | -75.81927 | 35337 ft | 516 kts | 68° |
| 2026-05-04 08:08 | 45.03107 | -75.77144 | 35409 ft | 516 kts | 69° |
| 2026-05-04 08:10 | 45.12270 | -75.38771 | 35993 ft | 515 kts | 69° |
| 2026-05-04 08:11 | 45.13403 | -75.33979 | 36091 ft | 514 kts | 70° |
| 2026-05-04 08:11 | 45.16803 | -75.19535 | 36188 ft | 516 kts | 70° |
| 2026-05-04 08:12 | 45.19065 | -75.09872 | 36273 ft | 517 kts | 70° |
| 2026-05-04 08:12 | 45.21309 | -75.00247 | 36425 ft | 515 kts | 70° |
| 2026-05-04 08:13 | 45.23546 | -74.90635 | 36524 ft | 514 kts | 68° |
| 2026-05-04 08:13 | 45.26839 | -74.81749 | 36528 ft | 510 kts | 50° |
| 2026-05-04 08:14 | 45.31529 | -74.74317 | 36581 ft | 506 kts | 43° |
| 2026-05-04 08:16 | 45.50948 | -74.45183 | 36714 ft | 512 kts | 43° |
| 2026-05-04 08:16 | 45.55820 | -74.37797 | 36720 ft | 514 kts | 44° |
| 2026-05-04 08:17 | 45.60710 | -74.30359 | 36715 ft | 516 kts | 44° |
| 2026-05-04 08:17 | 45.65626 | -74.22860 | 36721 ft | 518 kts | 44° |
| 2026-05-04 08:19 | 45.85276 | -73.92671 | 36736 ft | 522 kts | 45° |
| 2026-05-04 08:20 | 45.90198 | -73.85057 | 36728 ft | 523 kts | 45° |
| 2026-05-04 08:20 | 45.95141 | -73.77389 | 36724 ft | 524 kts | 45° |
| 2026-05-04 08:21 | 46.00070 | -73.69720 | 36722 ft | 524 kts | 45° |
| 2026-05-04 08:21 | 46.04991 | -73.62042 | 36723 ft | 524 kts | 45° |
| 2026-05-04 08:22 | 46.09904 | -73.54355 | 36722 ft | 525 kts | 45° |
| 2026-05-04 08:24 | 46.24490 | -73.24690 | 36710 ft | 529 kts | 66° |
| 2026-05-04 08:24 | 46.25910 | -73.19809 | 36712 ft | 529 kts | 66° |
| 2026-05-04 08:24 | 46.28735 | -73.10050 | 36721 ft | 529 kts | 66° |
| 2026-05-04 08:25 | 46.31550 | -73.00273 | 36722 ft | 529 kts | 66° |
| 2026-05-04 08:25 | 46.34354 | -72.90484 | 36733 ft | 529 kts | 66° |
| 2026-05-04 08:27 | 46.45618 | -72.51340 | 36738 ft | 528 kts | 66° |
| 2026-05-04 08:28 | 46.48414 | -72.41551 | 36749 ft | 528 kts | 66° |
| 2026-05-04 08:28 | 46.51204 | -72.31741 | 36740 ft | 528 kts | 68° |
| 2026-05-04 08:29 | 46.53980 | -72.21942 | 36750 ft | 527 kts | 67° |
| 2026-05-04 08:31 | 46.64972 | -71.82713 | 36748 ft | 526 kts | 68° |
| 2026-05-04 08:33 | 46.75390 | -71.43190 | 36757 ft | 524 kts | 70° |
| 2026-05-04 08:35 | 46.85168 | -71.03224 | 36727 ft | 525 kts | 71° |
| 2026-05-04 08:35 | 46.87592 | -70.93225 | 36738 ft | 524 kts | 71° |
| 2026-05-04 08:37 | 46.96005 | -70.58185 | 36732 ft | 524 kts | 71° |
| 2026-05-04 08:38 | 46.99044 | -70.48593 | 36736 ft | 524 kts | 56° |
| 2026-05-04 08:38 | 47.03815 | -70.40635 | 36726 ft | 522 kts | 39° |
| 2026-05-04 08:40 | 47.26788 | -70.14826 | 36723 ft | 522 kts | 37° |
| 2026-05-04 08:41 | 47.32546 | -70.08310 | 36718 ft | 522 kts | 37° |
| 2026-05-04 08:41 | 47.38280 | -70.01796 | 36722 ft | 522 kts | 37° |
| 2026-05-04 08:42 | 47.44015 | -69.95262 | 36725 ft | 522 kts | 37° |
| 2026-05-04 08:42 | 47.49740 | -69.88719 | 36723 ft | 522 kts | 37° |
| 2026-05-04 08:43 | 47.55457 | -69.82166 | 36730 ft | 522 kts | 37° |
| 2026-05-04 08:43 | 47.61172 | -69.75596 | 36725 ft | 522 kts | 37° |
| 2026-05-04 08:44 | 47.66888 | -69.69006 | 36725 ft | 522 kts | 37° |
| 2026-05-04 08:46 | 47.84099 | -69.35291 | 36706 ft | 521 kts | 62° |
| 2026-05-04 08:46 | 47.87490 | -69.25819 | 36698 ft | 521 kts | 63° |
| 2026-05-04 08:47 | 47.90869 | -69.16334 | 36690 ft | 521 kts | 63° |
| 2026-05-04 08:47 | 47.94244 | -69.06819 | 36685 ft | 521 kts | 63° |
| 2026-05-04 08:48 | 47.97624 | -68.97252 | 36667 ft | 521 kts | 63° |
| 2026-05-04 08:48 | 48.00988 | -68.87694 | 36658 ft | 520 kts | 63° |
| 2026-05-04 08:49 | 48.04329 | -68.78164 | 36644 ft | 520 kts | 63° |
| 2026-05-04 08:50 | 48.15987 | -68.44636 | 36636 ft | 519 kts | 63° |
| 2026-05-04 08:51 | 48.19291 | -68.35056 | 36633 ft | 519 kts | 63° |
| 2026-05-04 08:51 | 48.22576 | -68.25492 | 36623 ft | 519 kts | 64° |
| 2026-05-04 08:52 | 48.25850 | -68.15927 | 36621 ft | 518 kts | 64° |
| 2026-05-04 08:52 | 48.29123 | -68.06329 | 36615 ft | 518 kts | 64° |
| 2026-05-04 08:54 | 48.42128 | -67.67835 | 36608 ft | 517 kts | 64° |
| 2026-05-04 08:55 | 48.45361 | -67.58176 | 36598 ft | 517 kts | 64° |
| 2026-05-04 08:55 | 48.48574 | -67.48538 | 36594 ft | 517 kts | 64° |